createdAt,value
2023-02-27T00:00:57.635Z,6.22
2023-02-27T00:03:26.349Z,8.35
2023-02-27T00:05:56.454Z,8.05
2023-02-27T00:08:25.340Z,10.03
2023-02-27T00:10:55.383Z,10.57
2023-02-27T00:13:23.828Z,7.70
2023-02-27T00:15:52.355Z,6.60
2023-02-27T00:18:20.989Z,10.75
2023-02-27T00:20:49.913Z,5.78
2023-02-27T00:23:18.497Z,8.80
2023-02-27T00:25:46.970Z,6.30
2023-02-27T00:28:16.956Z,8.68
2023-02-27T00:30:45.495Z,6.57
2023-02-27T00:33:14.124Z,5.95
2023-02-27T00:35:43.124Z,9.52
2023-02-27T00:38:11.707Z,7.20
2023-02-27T00:40:40.363Z,7.13
2023-02-27T00:43:08.891Z,10.13
2023-02-27T00:45:38.815Z,7.22
2023-02-27T00:48:07.373Z,6.45
2023-02-27T00:50:36.738Z,7.15
2023-02-27T00:53:05.340Z,6.85
2023-02-27T00:55:33.883Z,8.07
2023-02-27T00:58:02.633Z,6.78
2023-02-27T01:00:31.533Z,8.23
2023-02-27T01:03:02.989Z,7.55
2023-02-27T01:05:32.780Z,10.00
2023-02-27T01:08:01.428Z,7.82
2023-02-27T01:10:31.024Z,10.40
2023-02-27T01:13:00.339Z,9.13
2023-02-27T01:15:28.889Z,7.68
2023-02-27T01:17:57.343Z,9.15
2023-02-27T01:20:27.314Z,7.10
2023-02-27T01:22:55.813Z,7.82
2023-02-27T01:25:24.238Z,7.95
2023-02-27T01:27:52.692Z,8.70
2023-02-27T01:30:21.304Z,9.32
2023-02-27T01:32:49.848Z,8.02
2023-02-27T01:35:18.794Z,8.77
2023-02-27T01:37:48.689Z,7.28
2023-02-27T01:40:17.408Z,8.52
2023-02-27T01:42:46.834Z,10.80
2023-02-27T01:45:34.115Z,8.02
2023-02-27T01:48:07.807Z,11.40
2023-02-27T01:50:39.266Z,9.30
2023-02-27T01:53:09.416Z,9.43
2023-02-27T01:55:40.194Z,9.00
2023-02-27T01:58:12.300Z,10.55
2023-02-27T02:00:41.375Z,10.98
2023-02-27T02:03:18.512Z,8.63
2023-02-27T02:05:48.487Z,9.82
2023-02-27T02:08:21.076Z,7.95
2023-02-27T02:10:52.289Z,9.38
2023-02-27T02:13:22.939Z,10.20
2023-02-27T02:16:04.939Z,8.13
2023-02-27T02:18:44.736Z,11.18
2023-02-27T02:22:01.336Z,7.30
2023-02-27T02:25:02.491Z,11.50
2023-02-27T02:27:44.985Z,10.75
2023-02-27T02:30:49.614Z,10.77
2023-02-27T02:33:58.061Z,9.63
2023-02-27T02:37:06.654Z,11.35
2023-02-27T02:39:58.888Z,7.25
2023-02-27T02:42:33.182Z,7.43
2023-02-27T02:45:15.004Z,9.02
2023-02-27T02:47:57.302Z,7.00
2023-02-27T02:50:30.979Z,9.98
2023-02-27T02:53:09.520Z,10.38
2023-02-27T02:55:46.010Z,8.55
2023-02-27T02:58:23.282Z,8.35
2023-02-27T03:00:57.179Z,8.27
2023-02-27T03:03:30.417Z,10.27
2023-02-27T03:06:02.412Z,8.75
2023-02-27T03:08:35.733Z,9.05
2023-02-27T03:11:07.232Z,9.75
2023-02-27T03:13:41.556Z,8.45
2023-02-27T03:16:16.407Z,7.30
2023-02-27T03:18:51.209Z,10.63
2023-02-27T03:21:26.055Z,10.25
2023-02-27T03:23:59.577Z,8.43
2023-02-27T03:26:35.118Z,7.43
2023-02-27T03:29:08.837Z,10.95
2023-02-27T03:31:43.140Z,8.93
2023-02-27T03:34:19.377Z,11.68
2023-02-27T03:36:55.306Z,11.13
2023-02-27T03:39:34.093Z,7.93
2023-02-27T03:42:15.938Z,10.47
2023-02-27T03:45:15.689Z,9.43
2023-02-27T03:47:44.614Z,10.05
2023-02-27T03:50:14.107Z,11.23
2023-02-27T03:52:43.700Z,11.50
2023-02-27T03:55:16.861Z,8.85
2023-02-27T03:57:49.788Z,9.65
2023-02-27T04:00:24.095Z,8.30
2023-02-27T04:03:07.473Z,9.73
2023-02-27T04:05:39.881Z,10.02
2023-02-27T04:08:30.000Z,9.40
2023-02-27T04:11:22.846Z,10.52
2023-02-27T04:14:38.137Z,12.25
2023-02-27T04:17:25.517Z,8.95
2023-02-27T04:20:15.077Z,12.02
2023-02-27T04:22:51.147Z,9.98
2023-02-27T04:25:50.512Z,9.73
2023-02-27T04:28:36.209Z,12.32
2023-02-27T04:31:19.583Z,10.52
2023-02-27T04:33:56.632Z,10.80
2023-02-27T04:36:34.362Z,9.52
2023-02-27T04:39:22.166Z,9.57
2023-02-27T04:42:24.266Z,10.02
2023-02-27T04:45:02.633Z,8.35
2023-02-27T04:47:46.912Z,10.93
2023-02-27T04:50:23.552Z,8.63
2023-02-27T04:53:00.006Z,8.35
2023-02-27T04:55:33.441Z,9.98
2023-02-27T04:58:14.129Z,8.88
2023-02-27T05:00:49.756Z,9.18
2023-02-27T05:03:31.227Z,12.88
2023-02-27T05:06:02.842Z,9.90
2023-02-27T05:08:43.018Z,13.40
2023-02-27T05:11:22.662Z,9.33
2023-02-27T05:13:58.740Z,9.20
2023-02-27T05:16:36.060Z,10.05
2023-02-27T05:19:09.881Z,10.00
2023-02-27T05:21:48.180Z,12.95
2023-02-27T05:24:31.086Z,8.63
2023-02-27T05:27:20.881Z,8.55
2023-02-27T05:29:53.849Z,11.38
2023-02-27T05:32:41.181Z,10.48
2023-02-27T05:35:47.573Z,12.85
2023-02-27T05:38:23.713Z,9.73
2023-02-27T05:41:01.450Z,8.80
2023-02-27T05:43:38.572Z,9.15
2023-02-27T05:46:13.124Z,10.60
2023-02-27T05:48:51.585Z,8.32
2023-02-27T05:51:26.981Z,8.65
2023-02-27T05:54:08.039Z,10.82
2023-02-27T05:57:05.784Z,10.43
2023-02-27T05:59:46.058Z,9.73
2023-02-27T06:02:15.489Z,10.43
2023-02-27T06:04:44.456Z,10.75
2023-02-27T06:07:21.316Z,11.35
2023-02-27T06:09:51.637Z,9.55
2023-02-27T06:12:30.037Z,10.10
2023-02-27T06:15:02.010Z,10.52
2023-02-27T06:17:33.986Z,9.80
2023-02-27T06:20:07.073Z,12.70
2023-02-27T06:22:40.017Z,9.98
2023-02-27T06:25:12.611Z,10.38
2023-02-27T06:27:44.629Z,9.85
2023-02-27T06:30:17.744Z,9.27
2023-02-27T06:32:49.742Z,11.13
2023-02-27T06:35:21.258Z,10.23
2023-02-27T06:37:54.764Z,8.18
2023-02-27T06:40:25.477Z,8.05
2023-02-27T06:42:57.173Z,9.38
2023-02-27T06:45:28.469Z,11.65
2023-02-27T06:48:00.172Z,11.10
2023-02-27T06:50:29.875Z,10.07
2023-02-27T06:53:10.424Z,19.85
2023-02-27T06:55:42.308Z,33.28
2023-02-27T06:58:25.448Z,34.38
2023-02-27T07:00:56.446Z,15.98
2023-02-27T07:03:33.502Z,14.10
2023-02-27T07:06:11.465Z,12.15
2023-02-27T07:08:53.996Z,8.20
2023-02-27T07:12:08.369Z,7.43
2023-02-27T07:14:41.170Z,9.60
2023-02-27T07:17:13.993Z,8.98
2023-02-27T07:19:46.173Z,10.43
2023-02-27T07:22:15.216Z,38.00
2023-02-27T07:24:50.770Z,11.40
2023-02-27T07:27:20.409Z,10.35
2023-02-27T07:29:55.958Z,8.90
2023-02-27T07:32:28.097Z,11.18
2023-02-27T07:34:59.812Z,11.95
2023-02-27T07:37:28.808Z,8.93
2023-02-27T07:40:02.004Z,9.25
2023-02-27T07:42:33.563Z,9.98
2023-02-27T07:45:03.449Z,7.72
2023-02-27T07:47:32.357Z,10.23
2023-02-27T07:50:07.617Z,10.93
2023-02-27T07:52:36.580Z,9.55
2023-02-27T07:55:10.142Z,10.30
2023-02-27T07:57:45.912Z,10.48
2023-02-27T08:00:16.075Z,9.30
2023-02-27T08:02:45.226Z,8.80
2023-02-27T08:05:20.002Z,10.43
2023-02-27T08:07:49.230Z,8.73
2023-02-27T08:10:19.912Z,11.48
2023-02-27T08:12:48.904Z,9.68
2023-02-27T08:15:18.052Z,10.23
2023-02-27T08:17:47.644Z,9.02
2023-02-27T08:20:17.611Z,8.57
2023-02-27T08:22:46.653Z,9.90
2023-02-27T08:25:15.602Z,9.23
2023-02-27T08:27:48.489Z,7.75
2023-02-27T08:30:18.409Z,9.90
2023-02-27T08:32:47.406Z,15.30
2023-02-27T08:35:16.541Z,11.65
2023-02-27T08:37:45.423Z,10.57
2023-02-27T08:40:14.714Z,10.35
2023-02-27T08:42:47.801Z,18.90
2023-02-27T08:45:19.628Z,10.55
2023-02-27T08:47:54.337Z,9.70
2023-02-27T08:50:28.794Z,10.15
2023-02-27T08:52:57.918Z,11.02
2023-02-27T08:55:26.841Z,9.25
2023-02-27T08:57:59.997Z,16.35
2023-02-27T09:00:32.680Z,30.40
2023-02-27T09:03:01.829Z,11.85
2023-02-27T09:05:36.058Z,11.80
2023-02-27T09:08:08.657Z,11.07
2023-02-27T09:10:39.078Z,10.40
2023-02-27T09:13:14.957Z,8.70
2023-02-27T09:15:43.834Z,11.98
2023-02-27T09:18:15.722Z,12.13
2023-02-27T09:20:44.807Z,8.30
2023-02-27T09:23:13.924Z,9.88
2023-02-27T09:25:45.725Z,11.20
2023-02-27T09:28:16.123Z,12.07
2023-02-27T09:30:45.380Z,8.75
2023-02-27T09:33:16.248Z,11.25
2023-02-27T09:35:45.335Z,11.10
2023-02-27T09:38:19.741Z,12.18
2023-02-27T09:40:55.305Z,11.10
2023-02-27T09:43:31.444Z,9.13
2023-02-27T09:46:02.642Z,11.18
2023-02-27T09:48:34.679Z,12.15
2023-02-27T09:51:07.032Z,10.77
2023-02-27T09:53:43.460Z,8.55
2023-02-27T09:56:25.126Z,11.35
2023-02-27T09:59:17.801Z,9.90
2023-02-27T10:01:51.722Z,10.45
2023-02-27T10:04:41.365Z,8.70
2023-02-27T10:07:22.344Z,10.75
2023-02-27T10:10:06.025Z,11.20
2023-02-27T10:12:51.569Z,11.45
2023-02-27T10:15:36.143Z,10.00
2023-02-27T10:18:26.856Z,12.95
2023-02-27T10:21:09.112Z,9.07
2023-02-27T10:23:44.305Z,9.57
2023-02-27T10:26:30.648Z,9.38
2023-02-27T10:29:07.011Z,8.75
2023-02-27T10:31:40.774Z,11.95
2023-02-27T10:34:16.519Z,11.10
2023-02-27T10:36:47.428Z,11.13
2023-02-27T10:39:21.132Z,11.75
2023-02-27T10:41:53.737Z,9.68
2023-02-27T10:44:24.771Z,9.23
2023-02-27T10:49:34.432Z,10.20
2023-02-27T10:52:15.378Z,13.25
2023-02-27T10:54:47.417Z,15.50
2023-02-27T10:57:33.832Z,11.07
2023-02-27T11:00:06.904Z,10.65
2023-02-27T11:02:40.628Z,14.10
2023-02-27T11:05:31.716Z,11.68
2023-02-27T11:08:15.762Z,11.68
2023-02-27T11:11:05.659Z,15.55
2023-02-27T11:13:36.980Z,14.38
2023-02-27T11:16:14.782Z,13.07
2023-02-27T11:18:49.614Z,13.07
2023-02-27T11:21:24.884Z,14.18
2023-02-27T11:24:00.863Z,17.88
2023-02-27T11:26:34.834Z,17.23
2023-02-27T11:29:16.064Z,21.85
2023-02-27T11:31:53.708Z,21.25
2023-02-27T11:34:33.699Z,22.25
2023-02-27T11:37:05.827Z,23.17
2023-02-27T11:39:38.789Z,23.00
2023-02-27T11:42:17.268Z,29.67
2023-02-27T11:44:57.743Z,25.70
2023-02-27T11:47:33.804Z,23.65
2023-02-27T11:50:28.514Z,29.23
2023-02-27T11:53:08.362Z,22.02
2023-02-27T11:55:38.980Z,24.25
2023-02-27T11:58:16.750Z,25.45
2023-02-27T12:00:51.086Z,24.17
2023-02-27T12:03:29.445Z,21.70
2023-02-27T12:06:05.168Z,21.75
2023-02-27T12:08:42.679Z,20.77
2023-02-27T12:11:22.443Z,20.58
2023-02-27T12:14:03.999Z,18.48
2023-02-27T12:16:38.001Z,18.33
2023-02-27T12:19:16.536Z,18.70
2023-02-27T12:21:51.970Z,17.75
2023-02-27T12:24:25.290Z,18.42
2023-02-27T12:27:02.231Z,15.35
2023-02-27T12:29:43.252Z,15.13
2023-02-27T12:32:25.039Z,15.82
2023-02-27T12:34:57.242Z,14.55
2023-02-27T12:37:30.306Z,17.20
2023-02-27T12:40:08.102Z,14.05
2023-02-27T12:42:54.461Z,13.05
2023-02-27T12:45:46.417Z,17.17
2023-02-27T12:48:56.199Z,14.23
2023-02-27T12:51:41.509Z,14.93
2023-02-27T12:54:29.267Z,16.85
2023-02-27T12:57:24.385Z,13.75
2023-02-27T13:00:08.853Z,17.73
2023-02-27T13:02:56.045Z,14.10
2023-02-27T13:05:43.029Z,15.00
2023-02-27T13:09:06.842Z,15.75
2023-02-27T13:11:48.277Z,13.65
2023-02-27T13:14:30.412Z,11.30
2023-02-27T13:17:04.993Z,12.98
2023-02-27T13:19:42.484Z,14.40
2023-02-27T13:22:18.038Z,13.70
2023-02-27T13:24:51.405Z,12.55
2023-02-27T13:27:28.929Z,15.95
2023-02-27T13:30:13.830Z,17.58
2023-02-27T13:32:48.813Z,14.52
2023-02-27T13:35:37.477Z,12.75
2023-02-27T13:38:45.080Z,14.73
2023-02-27T13:41:39.741Z,18.38
2023-02-27T13:44:44.689Z,15.10
2023-02-27T13:47:43.835Z,15.90
2023-02-27T13:50:54.767Z,12.23
2023-02-27T13:53:28.364Z,12.27
2023-02-27T13:56:24.071Z,12.63
2023-02-27T13:58:57.916Z,13.45
2023-02-27T14:01:35.542Z,14.15
2023-02-27T14:04:09.242Z,14.60
2023-02-27T14:06:45.771Z,14.00
2023-02-27T14:09:18.982Z,12.60
2023-02-27T14:11:56.804Z,13.70
2023-02-27T14:14:46.527Z,13.00
2023-02-27T14:17:49.631Z,14.77
2023-02-27T14:20:54.737Z,14.68
2023-02-27T14:23:28.722Z,14.82
2023-02-27T14:26:04.258Z,13.23
2023-02-27T14:28:43.184Z,15.95
2023-02-27T14:31:27.492Z,16.83
2023-02-27T14:34:05.601Z,15.88
2023-02-27T14:36:47.530Z,14.63
2023-02-27T14:39:24.863Z,13.30
2023-02-27T14:42:04.895Z,17.20
2023-02-27T14:44:44.884Z,13.80
2023-02-27T14:47:20.680Z,15.95
2023-02-27T14:49:57.032Z,15.65
2023-02-27T14:52:31.176Z,17.70
2023-02-27T14:55:19.777Z,14.77
2023-02-27T14:58:02.582Z,13.85
2023-02-27T15:00:40.962Z,15.75
2023-02-27T15:03:19.819Z,13.18
2023-02-27T15:05:52.997Z,13.65
2023-02-27T15:08:28.115Z,14.32
2023-02-27T15:11:02.592Z,12.50
2023-02-27T15:13:37.529Z,13.23
2023-02-27T15:16:39.635Z,12.60
2023-02-27T15:19:20.105Z,14.68
2023-02-27T15:21:52.966Z,11.27
2023-02-27T15:24:31.273Z,12.77
2023-02-27T15:27:05.171Z,10.45
2023-02-27T15:29:39.334Z,11.48
2023-02-27T15:32:27.195Z,13.60
2023-02-27T15:35:02.440Z,13.45
2023-02-27T15:37:35.916Z,11.80
2023-02-27T15:40:09.259Z,9.90
2023-02-27T15:42:43.678Z,11.15
2023-02-27T15:45:19.958Z,13.60
2023-02-27T15:47:49.770Z,10.82
2023-02-27T15:50:29.668Z,11.10
2023-02-27T15:53:06.110Z,11.93
2023-02-27T15:55:38.537Z,9.55
2023-02-27T15:58:19.504Z,9.10
2023-02-27T16:01:01.179Z,9.77
2023-02-27T16:03:40.072Z,17.35
2023-02-27T16:06:13.742Z,11.38
2023-02-27T16:08:52.398Z,9.88
2023-02-27T16:11:21.884Z,8.38
2023-02-27T16:13:54.682Z,12.77
2023-02-27T16:16:35.379Z,10.00
2023-02-27T16:19:27.056Z,8.90
2023-02-27T16:22:18.008Z,10.77
2023-02-27T16:24:51.610Z,9.43
2023-02-27T16:27:25.545Z,10.80
2023-02-27T16:30:02.944Z,10.57
2023-02-27T16:32:36.419Z,9.00
2023-02-27T16:35:07.705Z,10.30
2023-02-27T16:37:38.909Z,10.75
2023-02-27T16:40:17.012Z,11.73
2023-02-27T16:42:49.196Z,12.52
2023-02-27T16:45:23.779Z,12.50
2023-02-27T16:47:55.097Z,12.48
2023-02-27T16:50:34.452Z,11.18
2023-02-27T16:53:06.568Z,10.65
2023-02-27T16:55:41.190Z,14.82
2023-02-27T16:58:15.742Z,13.93
2023-02-27T17:00:45.588Z,16.73
2023-02-27T17:03:15.706Z,21.33
2023-02-27T17:05:44.482Z,13.52
2023-02-27T17:08:13.219Z,15.45
2023-02-27T17:10:44.572Z,15.05
2023-02-27T17:13:13.200Z,16.08
2023-02-27T17:15:41.891Z,17.67
2023-02-27T17:18:10.660Z,15.07
2023-02-27T17:20:39.213Z,18.30
2023-02-27T17:23:11.352Z,17.23
2023-02-27T17:25:44.030Z,21.52
2023-02-27T17:28:15.930Z,21.85
2023-02-27T17:30:45.067Z,20.67
2023-02-27T17:33:13.710Z,19.73
2023-02-27T17:35:43.254Z,20.30
2023-02-27T17:38:12.036Z,23.35
2023-02-27T17:40:40.693Z,19.35
2023-02-27T17:43:10.980Z,22.25
2023-02-27T17:45:40.564Z,21.80
2023-02-27T17:48:09.143Z,25.48
2023-02-27T17:50:37.908Z,24.05
2023-02-27T17:53:06.900Z,22.08
2023-02-27T17:55:35.659Z,24.08
2023-02-27T17:58:05.020Z,26.55
2023-02-27T18:00:35.283Z,21.35
2023-02-27T18:03:03.814Z,23.80
2023-02-27T18:05:32.797Z,21.08
2023-02-27T18:08:01.438Z,19.52
2023-02-27T18:10:29.903Z,19.42
2023-02-27T18:13:01.182Z,22.20
2023-02-27T18:15:30.007Z,23.33
2023-02-27T18:18:00.327Z,23.15
2023-02-27T18:20:28.871Z,20.10
2023-02-27T18:22:57.518Z,19.33
2023-02-27T18:25:27.516Z,17.85
2023-02-27T18:27:57.125Z,23.35
2023-02-27T18:30:26.326Z,20.48
2023-02-27T18:32:58.203Z,18.88
2023-02-27T18:35:28.783Z,17.08
2023-02-27T18:37:57.378Z,16.80
2023-02-27T18:40:26.959Z,15.27
2023-02-27T18:42:55.637Z,17.17
2023-02-27T18:45:24.662Z,18.05
2023-02-27T18:47:53.210Z,16.92
2023-02-27T18:50:22.060Z,15.90
2023-02-27T18:52:52.221Z,14.77
2023-02-27T18:55:21.748Z,17.88
2023-02-27T18:57:51.587Z,15.05
2023-02-27T19:00:21.869Z,17.42
2023-02-27T19:02:50.444Z,16.17
2023-02-27T19:05:19.953Z,14.73
2023-02-27T19:07:53.384Z,15.80
2023-02-27T19:10:25.206Z,12.55
2023-02-27T19:12:53.873Z,14.32
2023-02-27T19:15:22.325Z,13.40
2023-02-27T19:17:51.037Z,14.60
2023-02-27T19:20:20.022Z,15.52
2023-02-27T19:22:48.583Z,10.35
2023-02-27T19:25:18.927Z,15.57
2023-02-27T19:27:48.023Z,10.77
2023-02-27T19:30:17.840Z,15.27
2023-02-27T19:32:49.330Z,14.48
2023-02-27T19:35:21.619Z,14.85
2023-02-27T19:37:57.150Z,13.25
2023-02-27T19:40:28.365Z,12.13
2023-02-27T19:42:58.973Z,14.88
2023-02-27T19:45:27.580Z,12.43
2023-02-27T19:47:56.201Z,10.43
2023-02-27T19:50:24.862Z,10.00
2023-02-27T19:52:53.618Z,10.23
2023-02-27T19:55:22.358Z,11.95
2023-02-27T19:57:56.362Z,11.65
2023-02-27T20:00:25.592Z,11.30
2023-02-27T20:02:54.272Z,15.80
2023-02-27T20:05:23.215Z,8.73
2023-02-27T20:07:53.272Z,11.95
2023-02-27T20:10:24.233Z,8.93
2023-02-27T20:12:54.662Z,10.38
2023-02-27T20:15:23.444Z,9.13
2023-02-27T20:17:53.687Z,10.98
2023-02-27T20:20:23.128Z,11.23
2023-02-27T20:22:53.403Z,10.23
2023-02-27T20:25:22.484Z,8.32
2023-02-27T20:27:51.110Z,7.78
2023-02-27T20:30:21.303Z,8.02
2023-02-27T20:32:49.946Z,10.63
2023-02-27T20:35:18.639Z,8.57
2023-02-27T20:37:47.121Z,8.32
2023-02-27T20:40:17.418Z,8.95
2023-02-27T20:42:46.000Z,8.70
2023-02-27T20:45:15.001Z,9.07
2023-02-27T20:47:46.441Z,9.18
2023-02-27T20:50:15.248Z,10.57
2023-02-27T20:52:43.885Z,10.73
2023-02-27T20:55:12.719Z,11.95
2023-02-27T20:57:42.219Z,12.48
2023-02-27T21:00:12.486Z,13.20
2023-02-27T21:02:40.993Z,11.43
2023-02-27T21:05:11.478Z,14.05
2023-02-27T21:07:40.978Z,12.48
2023-02-27T21:10:15.491Z,11.07
2023-02-27T21:12:45.250Z,14.02
2023-02-27T21:16:32.456Z,12.32
2023-02-27T21:21:56.756Z,12.57
2023-02-27T21:28:08.859Z,12.05
2023-02-27T21:30:37.801Z,11.05
2023-02-27T21:33:06.621Z,10.32
2023-02-27T21:35:35.315Z,12.25
2023-02-27T21:38:05.565Z,12.68
2023-02-27T21:40:34.271Z,11.00
2023-02-27T21:43:02.873Z,13.63
2023-02-27T21:45:31.551Z,10.35
2023-02-27T21:48:00.076Z,9.75
2023-02-27T21:50:29.703Z,10.50
2023-02-27T21:52:58.302Z,9.88
2023-02-27T21:55:28.606Z,7.93
2023-02-27T21:57:58.271Z,11.83
2023-02-27T22:03:22.238Z,12.35
2023-02-27T22:05:54.237Z,11.82
2023-02-27T22:08:23.149Z,10.30
2023-02-27T22:10:57.629Z,12.38
2023-02-27T22:13:32.790Z,11.68
2023-02-27T22:16:05.470Z,11.27
2023-02-27T22:18:34.799Z,13.20
2023-02-27T22:21:04.846Z,12.38
2023-02-27T22:23:33.710Z,14.15
2023-02-27T22:26:05.407Z,13.85
2023-02-27T22:28:35.131Z,13.35
2023-02-27T22:31:11.246Z,10.85
2023-02-27T22:33:41.334Z,13.38
2023-02-27T22:36:14.585Z,13.82
2023-02-27T22:38:43.425Z,13.48
2023-02-27T22:41:43.247Z,13.50
2023-02-27T22:44:18.630Z,8.50
2023-02-27T22:47:12.704Z,10.77
2023-02-27T22:49:41.287Z,11.63
2023-02-27T22:52:10.119Z,13.23
2023-02-27T22:54:38.839Z,13.30
2023-02-27T22:57:09.400Z,12.93
2023-02-27T22:59:38.070Z,13.38
2023-02-27T23:02:07.067Z,12.98
2023-02-27T23:04:35.868Z,14.20
2023-02-27T23:07:04.512Z,14.27
2023-02-27T23:09:33.077Z,15.82
2023-02-27T23:12:03.823Z,14.52
2023-02-27T23:14:33.891Z,11.45
2023-02-27T23:17:02.449Z,14.35
2023-02-27T23:19:32.498Z,12.05
2023-02-27T23:22:01.038Z,13.40
2023-02-27T23:24:29.574Z,12.65
2023-02-27T23:26:58.272Z,14.25
2023-02-27T23:29:26.752Z,13.65
2023-02-27T23:31:56.792Z,10.45
2023-02-27T23:34:25.471Z,12.83
2023-02-27T23:36:53.950Z,13.18
2023-02-27T23:39:22.649Z,15.68
2023-02-27T23:41:51.093Z,11.35
2023-02-27T23:44:37.268Z,14.45
2023-02-27T23:47:07.908Z,17.27
2023-02-27T23:49:36.397Z,14.40
2023-02-27T23:52:04.990Z,12.88
2023-02-27T23:54:33.657Z,12.55
2023-02-27T23:57:02.122Z,17.98
2023-02-27T23:59:30.628Z,11.57
